sensor_id;sensor_type;location;lat;lon;timestamp;temperature;humidity
2130;DHT22;1071;52.544;13.374;2023-02-01T00:01:27;7.00;99.90
2130;DHT22;1071;52.544;13.374;2023-02-01T00:03:58;7.00;99.90
2130;DHT22;1071;52.544;13.374;2023-02-01T00:06:25;6.90;99.90
2130;DHT22;1071;52.544;13.374;2023-02-01T00:08:53;6.90;99.90
2130;DHT22;1071;52.544;13.374;2023-02-01T00:11:21;6.90;99.90
2130;DHT22;1071;52.544;13.374;2023-02-01T00:13:52;6.90;99.90
2130;DHT22;1071;52.544;13.374;2023-02-01T00:16:23;6.80;99.90
2130;DHT22;1071;52.544;13.374;2023-02-01T00:19:00;6.90;99.90
2130;DHT22;1071;52.544;13.374;2023-02-01T00:21:30;6.90;99.90
2130;DHT22;1071;52.544;13.374;2023-02-01T00:24:02;6.90;99.90
2130;DHT22;1071;52.544;13.374;2023-02-01T00:26:34;6.90;99.90
2130;DHT22;1071;52.544;13.374;2023-02-01T00:29:02;6.90;99.90
2130;DHT22;1071;52.544;13.374;2023-02-01T00:31:33;6.90;99.90
2130;DHT22;1071;52.544;13.374;2023-02-01T00:34:10;6.90;99.90
2130;DHT22;1071;52.544;13.374;2023-02-01T00:36:38;7.00;99.90
2130;DHT22;1071;52.544;13.374;2023-02-01T00:39:05;7.00;99.90
2130;DHT22;1071;52.544;13.374;2023-02-01T00:41:32;7.00;99.90
2130;DHT22;1071;52.544;13.374;2023-02-01T00:43:59;7.00;99.90
2130;DHT22;1071;52.544;13.374;2023-02-01T00:46:27;7.00;99.90
2130;DHT22;1071;52.544;13.374;2023-02-01T00:48:55;7.00;99.90
2130;DHT22;1071;52.544;13.374;2023-02-01T00:51:26;7.00;99.90
2130;DHT22;1071;52.544;13.374;2023-02-01T00:53:53;7.00;99.90
2130;DHT22;1071;52.544;13.374;2023-02-01T00:56:21;7.00;99.90
2130;DHT22;1071;52.544;13.374;2023-02-01T00:58:48;7.00;99.90
2130;DHT22;1071;52.544;13.374;2023-02-01T01:01:17;7.00;99.90
2130;DHT22;1071;52.544;13.374;2023-02-01T01:03:47;7.00;99.90
2130;DHT22;1071;52.544;13.374;2023-02-01T01:06:18;7.00;99.90
2130;DHT22;1071;52.544;13.374;2023-02-01T01:08:48;7.00;99.90
2130;DHT22;1071;52.544;13.374;2023-02-01T01:11:17;7.00;99.90
2130;DHT22;1071;52.544;13.374;2023-02-01T01:13:46;7.00;99.90
2130;DHT22;1071;52.544;13.374;2023-02-01T01:16:13;6.90;99.90
2130;DHT22;1071;52.544;13.374;2023-02-01T01:18:42;7.00;99.90
2130;DHT22;1071;52.544;13.374;2023-02-01T01:21:13;7.00;99.90
2130;DHT22;1071;52.544;13.374;2023-02-01T01:23:40;7.00;99.90
2130;DHT22;1071;52.544;13.374;2023-02-01T01:26:14;6.90;99.90
2130;DHT22;1071;52.544;13.374;2023-02-01T01:28:42;6.90;99.90
2130;DHT22;1071;52.544;13.374;2023-02-01T01:31:10;6.90;99.90
2130;DHT22;1071;52.544;13.374;2023-02-01T01:33:38;6.90;99.90
2130;DHT22;1071;52.544;13.374;2023-02-01T01:36:06;6.90;99.90
2130;DHT22;1071;52.544;13.374;2023-02-01T01:38:35;6.90;99.90
2130;DHT22;1071;52.544;13.374;2023-02-01T01:41:04;7.00;99.90
2130;DHT22;1071;52.544;13.374;2023-02-01T01:43:52;6.90;99.90
2130;DHT22;1071;52.544;13.374;2023-02-01T01:46:21;6.90;99.90
2130;DHT22;1071;52.544;13.374;2023-02-01T01:48:51;6.90;99.90
2130;DHT22;1071;52.544;13.374;2023-02-01T01:51:21;6.90;99.90
2130;DHT22;1071;52.544;13.374;2023-02-01T01:53:57;6.90;99.90
2130;DHT22;1071;52.544;13.374;2023-02-01T01:56:29;6.90;99.90
2130;DHT22;1071;52.544;13.374;2023-02-01T01:58:59;6.90;99.90
2130;DHT22;1071;52.544;13.374;2023-02-01T02:01:27;6.90;99.90
2130;DHT22;1071;52.544;13.374;2023-02-01T02:03:55;6.90;99.90
2130;DHT22;1071;52.544;13.374;2023-02-01T02:06:38;6.80;99.90
2130;DHT22;1071;52.544;13.374;2023-02-01T02:09:06;6.90;99.90
2130;DHT22;1071;52.544;13.374;2023-02-01T02:11:38;6.90;99.90
2130;DHT22;1071;52.544;13.374;2023-02-01T02:14:08;6.80;99.90
2130;DHT22;1071;52.544;13.374;2023-02-01T02:16:45;6.80;99.90
2130;DHT22;1071;52.544;13.374;2023-02-01T02:19:38;6.90;99.90
2130;DHT22;1071;52.544;13.374;2023-02-01T02:22:43;6.80;99.90
2130;DHT22;1071;52.544;13.374;2023-02-01T02:25:38;6.80;99.90
2130;DHT22;1071;52.544;13.374;2023-02-01T02:28:28;6.80;99.90
2130;DHT22;1071;52.544;13.374;2023-02-01T02:31:23;6.90;99.90
2130;DHT22;1071;52.544;13.374;2023-02-01T02:34:05;6.90;99.90
2130;DHT22;1071;52.544;13.374;2023-02-01T02:36:43;6.90;99.90
2130;DHT22;1071;52.544;13.374;2023-02-01T02:39:21;6.90;99.90
2130;DHT22;1071;52.544;13.374;2023-02-01T02:41:59;6.90;99.90
2130;DHT22;1071;52.544;13.374;2023-02-01T02:44:48;6.90;99.90
2130;DHT22;1071;52.544;13.374;2023-02-01T02:47:41;7.00;99.90
2130;DHT22;1071;52.544;13.374;2023-02-01T02:50:18;7.00;99.90
2130;DHT22;1071;52.544;13.374;2023-02-01T02:53:11;6.90;99.90
2130;DHT22;1071;52.544;13.374;2023-02-01T02:55:57;7.00;99.90
2130;DHT22;1071;52.544;13.374;2023-02-01T02:58:43;7.00;99.90
2130;DHT22;1071;52.544;13.374;2023-02-01T03:01:28;7.00;99.90
2130;DHT22;1071;52.544;13.374;2023-02-01T03:04:14;7.00;99.90
2130;DHT22;1071;52.544;13.374;2023-02-01T03:06:48;7.00;99.90
2130;DHT22;1071;52.544;13.374;2023-02-01T03:09:20;7.10;99.90
2130;DHT22;1071;52.544;13.374;2023-02-01T03:11:50;7.10;99.90
2130;DHT22;1071;52.544;13.374;2023-02-01T03:14:41;7.10;99.90
2130;DHT22;1071;52.544;13.374;2023-02-01T03:17:14;7.10;99.90
2130;DHT22;1071;52.544;13.374;2023-02-01T03:19:46;7.10;99.90
2130;DHT22;1071;52.544;13.374;2023-02-01T03:22:20;7.10;99.90
2130;DHT22;1071;52.544;13.374;2023-02-01T03:24:52;7.10;99.90
2130;DHT22;1071;52.544;13.374;2023-02-01T03:27:22;7.10;99.90
2130;DHT22;1071;52.544;13.374;2023-02-01T03:29:56;7.10;99.90
2130;DHT22;1071;52.544;13.374;2023-02-01T03:32:26;7.10;99.90
2130;DHT22;1071;52.544;13.374;2023-02-01T03:34:53;7.20;99.90
2130;DHT22;1071;52.544;13.374;2023-02-01T03:37:26;7.20;99.90
2130;DHT22;1071;52.544;13.374;2023-02-01T03:39:59;7.20;99.90
2130;DHT22;1071;52.544;13.374;2023-02-01T03:42:30;7.20;99.90
2130;DHT22;1071;52.544;13.374;2023-02-01T03:45:09;7.20;99.90
2130;DHT22;1071;52.544;13.374;2023-02-01T03:47:43;7.20;99.90
2130;DHT22;1071;52.544;13.374;2023-02-01T03:50:14;7.20;99.90
2130;DHT22;1071;52.544;13.374;2023-02-01T03:52:48;7.20;99.90
2130;DHT22;1071;52.544;13.374;2023-02-01T03:55:19;7.20;99.90
2130;DHT22;1071;52.544;13.374;2023-02-01T03:57:52;7.10;99.90
2130;DHT22;1071;52.544;13.374;2023-02-01T04:00:23;7.10;99.90
2130;DHT22;1071;52.544;13.374;2023-02-01T04:02:51;7.10;99.90
2130;DHT22;1071;52.544;13.374;2023-02-01T04:05:19;7.10;99.90
2130;DHT22;1071;52.544;13.374;2023-02-01T04:07:48;7.10;99.90
2130;DHT22;1071;52.544;13.374;2023-02-01T04:10:16;7.20;99.90
2130;DHT22;1071;52.544;13.374;2023-02-01T04:12:46;7.20;99.90
2130;DHT22;1071;52.544;13.374;2023-02-01T04:15:13;7.20;99.90
2130;DHT22;1071;52.544;13.374;2023-02-01T04:17:40;7.10;99.90
2130;DHT22;1071;52.544;13.374;2023-02-01T04:20:08;7.10;99.90
2130;DHT22;1071;52.544;13.374;2023-02-01T04:22:36;7.00;99.90
2130;DHT22;1071;52.544;13.374;2023-02-01T04:25:05;7.10;99.90
2130;DHT22;1071;52.544;13.374;2023-02-01T04:27:34;7.20;99.90
2130;DHT22;1071;52.544;13.374;2023-02-01T04:30:01;7.20;99.90
2130;DHT22;1071;52.544;13.374;2023-02-01T04:32:28;7.20;99.90
2130;DHT22;1071;52.544;13.374;2023-02-01T04:34:58;7.20;99.90
2130;DHT22;1071;52.544;13.374;2023-02-01T04:37:25;7.30;99.90
2130;DHT22;1071;52.544;13.374;2023-02-01T04:39:52;7.30;99.90
2130;DHT22;1071;52.544;13.374;2023-02-01T04:42:21;7.30;99.90
2130;DHT22;1071;52.544;13.374;2023-02-01T04:44:49;7.40;99.90
2130;DHT22;1071;52.544;13.374;2023-02-01T04:47:17;7.40;99.90
2130;DHT22;1071;52.544;13.374;2023-02-01T04:49:44;7.40;99.90
2130;DHT22;1071;52.544;13.374;2023-02-01T04:52:11;7.40;99.90
2130;DHT22;1071;52.544;13.374;2023-02-01T04:54:38;7.40;99.90
2130;DHT22;1071;52.544;13.374;2023-02-01T04:57:05;7.40;99.90
2130;DHT22;1071;52.544;13.374;2023-02-01T04:59:33;7.40;99.90
2130;DHT22;1071;52.544;13.374;2023-02-01T05:02:00;7.50;99.90
2130;DHT22;1071;52.544;13.374;2023-02-01T05:04:30;7.50;99.90
2130;DHT22;1071;52.544;13.374;2023-02-01T05:06:57;7.50;99.90
2130;DHT22;1071;52.544;13.374;2023-02-01T05:09:24;7.60;99.90
2130;DHT22;1071;52.544;13.374;2023-02-01T05:11:52;7.50;99.90
2130;DHT22;1071;52.544;13.374;2023-02-01T05:14:37;7.60;99.90
2130;DHT22;1071;52.544;13.374;2023-02-01T05:17:04;7.60;99.90
2130;DHT22;1071;52.544;13.374;2023-02-01T05:19:33;7.60;99.90
2130;DHT22;1071;52.544;13.374;2023-02-01T05:22:00;7.60;99.90
2130;DHT22;1071;52.544;13.374;2023-02-01T05:24:27;7.60;99.90
2130;DHT22;1071;52.544;13.374;2023-02-01T05:26:56;7.60;99.90
2130;DHT22;1071;52.544;13.374;2023-02-01T05:29:23;7.70;99.90
2130;DHT22;1071;52.544;13.374;2023-02-01T05:31:52;7.70;99.90
2130;DHT22;1071;52.544;13.374;2023-02-01T05:34:19;7.70;99.90
2130;DHT22;1071;52.544;13.374;2023-02-01T05:36:46;7.70;99.90
2130;DHT22;1071;52.544;13.374;2023-02-01T05:39:14;7.70;99.90
2130;DHT22;1071;52.544;13.374;2023-02-01T05:41:41;7.80;99.90
2130;DHT22;1071;52.544;13.374;2023-02-01T05:44:08;7.70;99.90
2130;DHT22;1071;52.544;13.374;2023-02-01T05:46:37;7.80;99.90
2130;DHT22;1071;52.544;13.374;2023-02-01T05:49:09;7.70;99.90
2130;DHT22;1071;52.544;13.374;2023-02-01T05:51:37;7.70;99.90
2130;DHT22;1071;52.544;13.374;2023-02-01T05:54:04;7.70;99.90
2130;DHT22;1071;52.544;13.374;2023-02-01T05:56:31;7.80;99.90
2130;DHT22;1071;52.544;13.374;2023-02-01T05:59:01;7.70;99.90
2130;DHT22;1071;52.544;13.374;2023-02-01T06:01:31;7.70;99.90
2130;DHT22;1071;52.544;13.374;2023-02-01T06:03:58;7.70;99.90
2130;DHT22;1071;52.544;13.374;2023-02-01T06:06:27;7.70;99.90
2130;DHT22;1071;52.544;13.374;2023-02-01T06:08:57;7.70;99.90
2130;DHT22;1071;52.544;13.374;2023-02-01T06:11:27;7.70;99.90
2130;DHT22;1071;52.544;13.374;2023-02-01T06:13:55;7.80;99.90
2130;DHT22;1071;52.544;13.374;2023-02-01T06:16:25;7.80;99.90
2130;DHT22;1071;52.544;13.374;2023-02-01T06:18:52;7.80;99.90
2130;DHT22;1071;52.544;13.374;2023-02-01T06:21:19;7.70;99.90
2130;DHT22;1071;52.544;13.374;2023-02-01T06:23:51;7.70;99.90
2130;DHT22;1071;52.544;13.374;2023-02-01T06:26:19;7.70;99.90
2130;DHT22;1071;52.544;13.374;2023-02-01T06:28:48;7.70;99.90
2130;DHT22;1071;52.544;13.374;2023-02-01T06:31:15;7.70;99.90
2130;DHT22;1071;52.544;13.374;2023-02-01T06:33:43;7.70;99.90
2130;DHT22;1071;52.544;13.374;2023-02-01T06:36:11;7.70;99.90
2130;DHT22;1071;52.544;13.374;2023-02-01T06:38:38;7.70;99.90
2130;DHT22;1071;52.544;13.374;2023-02-01T06:41:07;7.70;99.90
2130;DHT22;1071;52.544;13.374;2023-02-01T06:43:34;7.70;99.90
2130;DHT22;1071;52.544;13.374;2023-02-01T06:46:08;7.70;99.90
2130;DHT22;1071;52.544;13.374;2023-02-01T06:48:36;7.70;99.90
2130;DHT22;1071;52.544;13.374;2023-02-01T06:51:04;7.60;99.90
2130;DHT22;1071;52.544;13.374;2023-02-01T06:53:31;7.60;99.90
2130;DHT22;1071;52.544;13.374;2023-02-01T06:56:00;7.60;99.90
2130;DHT22;1071;52.544;13.374;2023-02-01T06:58:30;7.60;99.90
2130;DHT22;1071;52.544;13.374;2023-02-01T07:00:58;7.60;99.90
2130;DHT22;1071;52.544;13.374;2023-02-01T07:03:25;7.60;99.90
2130;DHT22;1071;52.544;13.374;2023-02-01T07:05:56;7.60;99.90
2130;DHT22;1071;52.544;13.374;2023-02-01T07:08:27;7.70;99.90
2130;DHT22;1071;52.544;13.374;2023-02-01T07:10:54;7.60;99.90
2130;DHT22;1071;52.544;13.374;2023-02-01T07:13:21;7.60;99.90
2130;DHT22;1071;52.544;13.374;2023-02-01T07:15:49;7.70;99.90
2130;DHT22;1071;52.544;13.374;2023-02-01T07:18:16;7.70;99.90
2130;DHT22;1071;52.544;13.374;2023-02-01T07:20:49;7.70;99.90
2130;DHT22;1071;52.544;13.374;2023-02-01T07:23:17;7.70;99.90
2130;DHT22;1071;52.544;13.374;2023-02-01T07:25:44;7.70;99.90
2130;DHT22;1071;52.544;13.374;2023-02-01T07:28:11;7.60;99.90
2130;DHT22;1071;52.544;13.374;2023-02-01T07:30:40;7.60;99.90
2130;DHT22;1071;52.544;13.374;2023-02-01T07:33:11;7.60;99.90
2130;DHT22;1071;52.544;13.374;2023-02-01T07:35:41;7.50;99.90
2130;DHT22;1071;52.544;13.374;2023-02-01T07:38:08;7.50;99.90
2130;DHT22;1071;52.544;13.374;2023-02-01T07:40:35;7.50;99.90
2130;DHT22;1071;52.544;13.374;2023-02-01T07:43:02;7.60;99.90
2130;DHT22;1071;52.544;13.374;2023-02-01T07:45:31;7.60;99.90
2130;DHT22;1071;52.544;13.374;2023-02-01T07:47:58;7.60;99.90
2130;DHT22;1071;52.544;13.374;2023-02-01T07:50:27;7.70;99.90
2130;DHT22;1071;52.544;13.374;2023-02-01T07:52:54;7.70;99.90
2130;DHT22;1071;52.544;13.374;2023-02-01T07:55:21;7.70;99.90
2130;DHT22;1071;52.544;13.374;2023-02-01T07:57:57;7.60;99.90
2130;DHT22;1071;52.544;13.374;2023-02-01T08:00:25;7.60;99.90
2130;DHT22;1071;52.544;13.374;2023-02-01T08:03:06;7.60;99.90
2130;DHT22;1071;52.544;13.374;2023-02-01T08:05:35;7.60;99.90
2130;DHT22;1071;52.544;13.374;2023-02-01T08:08:03;7.50;99.90
2130;DHT22;1071;52.544;13.374;2023-02-01T08:10:30;7.50;99.90
2130;DHT22;1071;52.544;13.374;2023-02-01T08:12:58;7.40;99.90
2130;DHT22;1071;52.544;13.374;2023-02-01T08:15:27;7.40;99.90
2130;DHT22;1071;52.544;13.374;2023-02-01T08:17:54;7.40;99.90
2130;DHT22;1071;52.544;13.374;2023-02-01T08:20:21;7.40;99.90
2130;DHT22;1071;52.544;13.374;2023-02-01T08:22:51;7.40;99.90
2130;DHT22;1071;52.544;13.374;2023-02-01T08:25:18;7.30;99.90
2130;DHT22;1071;52.544;13.374;2023-02-01T08:27:45;7.20;99.90
2130;DHT22;1071;52.544;13.374;2023-02-01T08:30:13;7.30;99.90
2130;DHT22;1071;52.544;13.374;2023-02-01T08:32:40;7.20;99.90
2130;DHT22;1071;52.544;13.374;2023-02-01T08:35:08;7.20;99.90
2130;DHT22;1071;52.544;13.374;2023-02-01T08:37:35;7.20;99.90
2130;DHT22;1071;52.544;13.374;2023-02-01T08:40:04;7.20;99.90
2130;DHT22;1071;52.544;13.374;2023-02-01T08:42:32;7.20;99.90
2130;DHT22;1071;52.544;13.374;2023-02-01T08:45:16;7.10;99.90
2130;DHT22;1071;52.544;13.374;2023-02-01T08:47:44;7.10;99.90
2130;DHT22;1071;52.544;13.374;2023-02-01T08:50:12;7.00;99.90
2130;DHT22;1071;52.544;13.374;2023-02-01T08:52:41;7.00;99.90
2130;DHT22;1071;52.544;13.374;2023-02-01T08:55:10;7.00;99.90
2130;DHT22;1071;52.544;13.374;2023-02-01T08:57:38;7.00;99.90
2130;DHT22;1071;52.544;13.374;2023-02-01T09:00:07;6.90;99.90
2130;DHT22;1071;52.544;13.374;2023-02-01T09:02:38;7.00;99.90
2130;DHT22;1071;52.544;13.374;2023-02-01T09:05:09;6.90;99.90
2130;DHT22;1071;52.544;13.374;2023-02-01T09:07:37;6.90;99.90
2130;DHT22;1071;52.544;13.374;2023-02-01T09:10:05;6.90;99.90
2130;DHT22;1071;52.544;13.374;2023-02-01T09:12:34;6.90;99.90
2130;DHT22;1071;52.544;13.374;2023-02-01T09:15:02;6.90;99.90
2130;DHT22;1071;52.544;13.374;2023-02-01T09:17:32;6.90;99.90
2130;DHT22;1071;52.544;13.374;2023-02-01T09:20:00;6.90;99.90
2130;DHT22;1071;52.544;13.374;2023-02-01T09:22:27;6.90;99.90
2130;DHT22;1071;52.544;13.374;2023-02-01T09:24:55;6.90;99.90
2130;DHT22;1071;52.544;13.374;2023-02-01T09:27:22;6.90;99.90
2130;DHT22;1071;52.544;13.374;2023-02-01T09:29:50;6.90;99.90
2130;DHT22;1071;52.544;13.374;2023-02-01T09:32:19;6.90;99.90
2130;DHT22;1071;52.544;13.374;2023-02-01T09:34:46;6.90;99.90
2130;DHT22;1071;52.544;13.374;2023-02-01T09:37:13;6.90;99.90
2130;DHT22;1071;52.544;13.374;2023-02-01T09:39:40;6.90;99.90
2130;DHT22;1071;52.544;13.374;2023-02-01T09:42:19;7.00;99.90
2130;DHT22;1071;52.544;13.374;2023-02-01T09:45:03;7.00;99.90
2130;DHT22;1071;52.544;13.374;2023-02-01T09:47:46;7.10;99.90
2130;DHT22;1071;52.544;13.374;2023-02-01T09:50:17;7.00;99.90
2130;DHT22;1071;52.544;13.374;2023-02-01T09:52:55;7.00;99.90
2130;DHT22;1071;52.544;13.374;2023-02-01T09:55:30;7.00;99.90
2130;DHT22;1071;52.544;13.374;2023-02-01T09:58:09;7.00;99.90
2130;DHT22;1071;52.544;13.374;2023-02-01T10:00:44;7.10;99.90
2130;DHT22;1071;52.544;13.374;2023-02-01T10:03:15;7.10;99.90
2130;DHT22;1071;52.544;13.374;2023-02-01T10:08:57;7.10;99.90
2130;DHT22;1071;52.544;13.374;2023-02-01T10:11:36;7.10;99.90
2130;DHT22;1071;52.544;13.374;2023-02-01T10:14:26;7.10;99.90
2130;DHT22;1071;52.544;13.374;2023-02-01T10:17:06;7.10;99.90
2130;DHT22;1071;52.544;13.374;2023-02-01T10:19:39;7.00;99.90
2130;DHT22;1071;52.544;13.374;2023-02-01T10:22:13;7.00;99.90
2130;DHT22;1071;52.544;13.374;2023-02-01T10:24:42;7.00;99.90
2130;DHT22;1071;52.544;13.374;2023-02-01T10:27:17;7.10;99.90
2130;DHT22;1071;52.544;13.374;2023-02-01T10:29:48;7.10;99.90
2130;DHT22;1071;52.544;13.374;2023-02-01T10:32:21;7.10;99.90
2130;DHT22;1071;52.544;13.374;2023-02-01T10:34:53;7.10;99.90
2130;DHT22;1071;52.544;13.374;2023-02-01T10:37:28;7.20;99.90
2130;DHT22;1071;52.544;13.374;2023-02-01T10:39:58;7.20;99.90
2130;DHT22;1071;52.544;13.374;2023-02-01T10:42:27;7.20;99.90
2130;DHT22;1071;52.544;13.374;2023-02-01T10:45:05;7.20;99.90
2130;DHT22;1071;52.544;13.374;2023-02-01T10:47:34;7.30;99.90
2130;DHT22;1071;52.544;13.374;2023-02-01T10:50:13;7.20;99.90
2130;DHT22;1071;52.544;13.374;2023-02-01T10:52:45;7.30;99.90
2130;DHT22;1071;52.544;13.374;2023-02-01T10:55:29;7.30;99.90
2130;DHT22;1071;52.544;13.374;2023-02-01T10:58:14;7.30;99.90
2130;DHT22;1071;52.544;13.374;2023-02-01T11:00:47;7.20;99.90
2130;DHT22;1071;52.544;13.374;2023-02-01T11:03:38;7.20;99.90
2130;DHT22;1071;52.544;13.374;2023-02-01T11:06:13;7.20;99.90
2130;DHT22;1071;52.544;13.374;2023-02-01T11:08:49;7.20;99.90
2130;DHT22;1071;52.544;13.374;2023-02-01T11:11:17;7.20;99.90
2130;DHT22;1071;52.544;13.374;2023-02-01T11:13:52;7.20;99.90
2130;DHT22;1071;52.544;13.374;2023-02-01T11:16:20;7.20;99.90
2130;DHT22;1071;52.544;13.374;2023-02-01T11:18:53;7.30;99.90
2130;DHT22;1071;52.544;13.374;2023-02-01T11:21:22;7.30;99.90
2130;DHT22;1071;52.544;13.374;2023-02-01T11:23:49;7.30;99.90
2130;DHT22;1071;52.544;13.374;2023-02-01T11:26:22;7.30;99.90
2130;DHT22;1071;52.544;13.374;2023-02-01T11:28:56;7.40;99.90
2130;DHT22;1071;52.544;13.374;2023-02-01T11:31:25;7.40;99.90
2130;DHT22;1071;52.544;13.374;2023-02-01T11:34:00;7.40;99.90
2130;DHT22;1071;52.544;13.374;2023-02-01T11:36:30;7.50;99.90
2130;DHT22;1071;52.544;13.374;2023-02-01T11:39:09;7.50;99.90
2130;DHT22;1071;52.544;13.374;2023-02-01T11:41:54;7.60;99.90
2130;DHT22;1071;52.544;13.374;2023-02-01T11:44:31;7.60;99.90
2130;DHT22;1071;52.544;13.374;2023-02-01T11:47:27;7.70;99.90
2130;DHT22;1071;52.544;13.374;2023-02-01T11:49:57;7.70;99.90
2130;DHT22;1071;52.544;13.374;2023-02-01T11:52:56;7.80;99.90
2130;DHT22;1071;52.544;13.374;2023-02-01T11:55:46;7.80;99.90
2130;DHT22;1071;52.544;13.374;2023-02-01T11:58:40;7.90;99.90
2130;DHT22;1071;52.544;13.374;2023-02-01T12:01:27;7.90;99.90
2130;DHT22;1071;52.544;13.374;2023-02-01T12:07:04;8.00;99.90
2130;DHT22;1071;52.544;13.374;2023-02-01T12:09:46;8.00;99.90
2130;DHT22;1071;52.544;13.374;2023-02-01T12:12:24;8.00;99.90
2130;DHT22;1071;52.544;13.374;2023-02-01T12:15:03;8.10;99.90
2130;DHT22;1071;52.544;13.374;2023-02-01T12:17:56;8.10;99.90
2130;DHT22;1071;52.544;13.374;2023-02-01T12:20:50;8.20;99.90
2130;DHT22;1071;52.544;13.374;2023-02-01T12:23:39;8.20;99.90
2130;DHT22;1071;52.544;13.374;2023-02-01T12:26:27;8.30;99.90
2130;DHT22;1071;52.544;13.374;2023-02-01T12:29:16;8.40;99.90
2130;DHT22;1071;52.544;13.374;2023-02-01T12:32:05;8.40;99.90
2130;DHT22;1071;52.544;13.374;2023-02-01T12:37:45;8.40;99.90
2130;DHT22;1071;52.544;13.374;2023-02-01T12:40:34;8.30;99.90
2130;DHT22;1071;52.544;13.374;2023-02-01T12:43:11;8.30;99.90
2130;DHT22;1071;52.544;13.374;2023-02-01T12:45:51;8.40;99.90
2130;DHT22;1071;52.544;13.374;2023-02-01T12:48:30;8.40;99.90
2130;DHT22;1071;52.544;13.374;2023-02-01T12:51:02;8.30;99.90
2130;DHT22;1071;52.544;13.374;2023-02-01T12:53:40;8.30;99.90
2130;DHT22;1071;52.544;13.374;2023-02-01T12:56:16;8.30;99.90
2130;DHT22;1071;52.544;13.374;2023-02-01T12:58:48;8.30;99.90
2130;DHT22;1071;52.544;13.374;2023-02-01T13:01:20;8.30;99.90
2130;DHT22;1071;52.544;13.374;2023-02-01T13:03:57;8.40;99.90
2130;DHT22;1071;52.544;13.374;2023-02-01T13:06:29;8.40;99.90
2130;DHT22;1071;52.544;13.374;2023-02-01T13:09:02;8.30;99.90
2130;DHT22;1071;52.544;13.374;2023-02-01T13:11:34;8.40;99.90
2130;DHT22;1071;52.544;13.374;2023-02-01T13:14:05;8.40;99.90
2130;DHT22;1071;52.544;13.374;2023-02-01T13:16:38;8.40;99.90
2130;DHT22;1071;52.544;13.374;2023-02-01T13:19:12;8.30;99.90
2130;DHT22;1071;52.544;13.374;2023-02-01T13:21:45;8.40;99.90
2130;DHT22;1071;52.544;13.374;2023-02-01T13:24:30;8.40;99.90
2130;DHT22;1071;52.544;13.374;2023-02-01T13:27:04;8.40;99.90
2130;DHT22;1071;52.544;13.374;2023-02-01T13:29:33;8.40;99.90
2130;DHT22;1071;52.544;13.374;2023-02-01T13:32:26;8.40;99.90
2130;DHT22;1071;52.544;13.374;2023-02-01T13:35:19;8.50;99.90
2130;DHT22;1071;52.544;13.374;2023-02-01T13:38:08;8.50;99.90
2130;DHT22;1071;52.544;13.374;2023-02-01T13:40:42;8.50;99.90
2130;DHT22;1071;52.544;13.374;2023-02-01T13:43:15;8.60;99.90
2130;DHT22;1071;52.544;13.374;2023-02-01T13:45:48;8.60;99.90
2130;DHT22;1071;52.544;13.374;2023-02-01T13:48:22;8.70;99.90
2130;DHT22;1071;52.544;13.374;2023-02-01T13:50:55;8.70;99.90
2130;DHT22;1071;52.544;13.374;2023-02-01T13:53:27;8.70;99.90
2130;DHT22;1071;52.544;13.374;2023-02-01T13:56:00;8.60;99.90
2130;DHT22;1071;52.544;13.374;2023-02-01T13:58:36;8.70;99.90
2130;DHT22;1071;52.544;13.374;2023-02-01T14:01:37;8.70;99.90
2130;DHT22;1071;52.544;13.374;2023-02-01T14:07:22;8.70;99.90
2130;DHT22;1071;52.544;13.374;2023-02-01T14:09:52;8.70;99.90
2130;DHT22;1071;52.544;13.374;2023-02-01T14:12:45;8.70;99.90
2130;DHT22;1071;52.544;13.374;2023-02-01T14:15:24;8.70;99.90
2130;DHT22;1071;52.544;13.374;2023-02-01T14:17:52;8.70;99.90
2130;DHT22;1071;52.544;13.374;2023-02-01T14:20:46;8.70;99.90
2130;DHT22;1071;52.544;13.374;2023-02-01T14:23:26;8.70;99.90
2130;DHT22;1071;52.544;13.374;2023-02-01T14:26:14;8.70;99.90
2130;DHT22;1071;52.544;13.374;2023-02-01T14:28:56;8.60;99.90
2130;DHT22;1071;52.544;13.374;2023-02-01T14:31:43;8.60;99.90
2130;DHT22;1071;52.544;13.374;2023-02-01T14:34:35;8.60;99.90
2130;DHT22;1071;52.544;13.374;2023-02-01T14:37:09;8.60;99.90
2130;DHT22;1071;52.544;13.374;2023-02-01T14:39:50;8.50;99.90
2130;DHT22;1071;52.544;13.374;2023-02-01T14:42:25;8.40;99.90
2130;DHT22;1071;52.544;13.374;2023-02-01T14:44:54;8.50;99.90
2130;DHT22;1071;52.544;13.374;2023-02-01T14:47:32;8.50;99.90
2130;DHT22;1071;52.544;13.374;2023-02-01T14:50:30;8.50;99.90
2130;DHT22;1071;52.544;13.374;2023-02-01T14:53:14;8.50;99.90
2130;DHT22;1071;52.544;13.374;2023-02-01T14:55:44;8.50;99.90
2130;DHT22;1071;52.544;13.374;2023-02-01T14:58:18;8.50;99.90
2130;DHT22;1071;52.544;13.374;2023-02-01T15:00:49;8.50;99.90
2130;DHT22;1071;52.544;13.374;2023-02-01T15:03:32;8.50;99.90
2130;DHT22;1071;52.544;13.374;2023-02-01T15:06:02;8.50;99.90
2130;DHT22;1071;52.544;13.374;2023-02-01T15:08:33;8.50;99.90
2130;DHT22;1071;52.544;13.374;2023-02-01T15:11:08;8.50;99.90
2130;DHT22;1071;52.544;13.374;2023-02-01T15:13:38;8.40;99.90
2130;DHT22;1071;52.544;13.374;2023-02-01T15:16:11;8.30;99.90
2130;DHT22;1071;52.544;13.374;2023-02-01T15:18:39;8.30;99.90
2130;DHT22;1071;52.544;13.374;2023-02-01T15:21:15;8.30;99.90
2130;DHT22;1071;52.544;13.374;2023-02-01T15:23:43;8.20;99.90
2130;DHT22;1071;52.544;13.374;2023-02-01T15:26:26;8.10;99.90
2130;DHT22;1071;52.544;13.374;2023-02-01T15:28:59;8.20;99.90
2130;DHT22;1071;52.544;13.374;2023-02-01T15:31:34;8.10;99.90
2130;DHT22;1071;52.544;13.374;2023-02-01T15:34:03;8.00;99.90
2130;DHT22;1071;52.544;13.374;2023-02-01T15:36:31;7.90;99.90
2130;DHT22;1071;52.544;13.374;2023-02-01T15:39:13;7.90;99.90
2130;DHT22;1071;52.544;13.374;2023-02-01T15:41:48;7.80;99.90
2130;DHT22;1071;52.544;13.374;2023-02-01T15:44:20;7.80;99.90
2130;DHT22;1071;52.544;13.374;2023-02-01T15:46:50;7.80;99.90
2130;DHT22;1071;52.544;13.374;2023-02-01T15:49:23;7.70;99.90
2130;DHT22;1071;52.544;13.374;2023-02-01T15:51:51;7.70;99.90
2130;DHT22;1071;52.544;13.374;2023-02-01T15:54:22;7.60;99.90
2130;DHT22;1071;52.544;13.374;2023-02-01T15:56:53;7.60;99.90
2130;DHT22;1071;52.544;13.374;2023-02-01T15:59:23;7.50;99.90
2130;DHT22;1071;52.544;13.374;2023-02-01T16:01:50;7.50;99.90
2130;DHT22;1071;52.544;13.374;2023-02-01T16:04:20;7.40;99.90
2130;DHT22;1071;52.544;13.374;2023-02-01T16:06:52;7.30;99.90
2130;DHT22;1071;52.544;13.374;2023-02-01T16:09:24;7.20;99.90
2130;DHT22;1071;52.544;13.374;2023-02-01T16:11:56;7.10;99.90
2130;DHT22;1071;52.544;13.374;2023-02-01T16:14:24;7.00;99.90
2130;DHT22;1071;52.544;13.374;2023-02-01T16:16:56;6.90;99.90
2130;DHT22;1071;52.544;13.374;2023-02-01T16:19:24;6.80;99.90
2130;DHT22;1071;52.544;13.374;2023-02-01T16:21:53;6.80;99.90
2130;DHT22;1071;52.544;13.374;2023-02-01T16:24:21;6.70;99.90
2130;DHT22;1071;52.544;13.374;2023-02-01T16:26:51;6.60;99.90
2130;DHT22;1071;52.544;13.374;2023-02-01T16:29:19;6.60;99.90
2130;DHT22;1071;52.544;13.374;2023-02-01T16:31:48;6.50;99.90
2130;DHT22;1071;52.544;13.374;2023-02-01T16:34:16;6.50;99.90
2130;DHT22;1071;52.544;13.374;2023-02-01T16:36:46;6.50;99.90
2130;DHT22;1071;52.544;13.374;2023-02-01T16:39:17;6.40;99.90
2130;DHT22;1071;52.544;13.374;2023-02-01T16:41:44;6.40;99.90
2130;DHT22;1071;52.544;13.374;2023-02-01T16:44:11;6.40;99.90
2130;DHT22;1071;52.544;13.374;2023-02-01T16:46:44;6.30;99.90
2130;DHT22;1071;52.544;13.374;2023-02-01T16:49:18;6.30;99.90
2130;DHT22;1071;52.544;13.374;2023-02-01T16:51:55;6.20;99.90